Latest Weather Observations for Rowley Shoals

IDW60801

Issued at 6:33 pm WST Wednesday 28 June 2017 (issued every 30 minutes, with the page automatically refreshed every 10 minutes)

About weather observations | Map of weather stations | Latest weather observations for WA | Other Formats
Station Details ID: 200713 Name: ROWLEY SHOALS Lat: -17.52 Lon: 118.95 Height: 0.0 m
Data from the previous 72 hours. | See also: Recent months at Rowley Shoals
Date/Time
WST
Temp
°C
App
Temp
°C
Dew
Point
°C
Rel
Hum
%
Delta-T
°C
Wind Press
QNH
hPa
Press
MSL
hPa
Rain since
9am
mm
Dir  Spd
km/h
Gust
km/h
Spd
kts
Gust
kts
28/06:30pm - - - - - SE 41 46 22 25 1016.6 1016.6 -
28/06:00pm - - - - - SE 41 48 22 26 1016.2 1016.2 -
28/05:30pm - - - - - SE 41 50 22 27 1016.2 1016.2 -
28/05:00pm - - - - - SE 39 48 21 26 1016.2 1016.2 -
28/04:30pm - - - - - ESE 39 48 21 26 1015.9 1015.9 -
28/04:00pm - - - - - SE 39 48 21 26 1015.8 1015.8 -
28/03:30pm - - - - - ESE 39 50 21 27 1015.4 1015.4 -
28/03:00pm - - - - - ESE 37 44 20 24 1015.3 1015.4 -
28/02:30pm - - - - - ESE 39 46 21 25 1015.4 1015.4 -
28/02:00pm - - - - - ESE 37 43 20 23 1015.7 1015.6 -
28/01:30pm - - - - - ESE 33 43 18 23 1016.1 1016.1 -
28/01:00pm - - - - - SE 35 43 19 23 1016.5 1016.5 -
28/12:30pm - - - - - ESE 39 46 21 25 1016.7 1016.7 -
28/12:00pm - - - - - SE 39 46 21 25 1017.4 1017.2 -
28/11:30am - - - - - ESE 37 46 20 25 1018.0 1018.0 -
28/11:00am - - - - - SE 35 44 19 24 1018.4 1018.2 -
28/10:30am - - - - - SE 35 43 19 23 1018.6 1018.6 -
28/10:00am - - - - - ESE 35 43 19 23 1018.8 1018.8 -
28/09:30am - - - - - SE 39 46 21 25 1018.6 1018.6 -
28/09:00am - - - - - ESE 41 48 22 26 1018.4 1018.4 -
28/08:30am - - - - - ESE 44 52 24 28 1018.0 1018.0 -
28/08:00am - - - - - ESE 44 52 24 28 1017.8 1017.8 -
28/07:30am - - - - - SE 44 52 24 28 1017.2 1017.2 -
28/07:00am - - - - - SE 44 50 24 27 1016.9 1017.0 -
28/06:30am - - - - - SE 43 48 23 26 1016.6 1016.6 -
28/06:00am - - - - - SE 43 50 23 27 1016.5 1016.6 -
28/05:30am - - - - - SE 43 52 23 28 1016.3 1016.3 -
28/05:00am - - - - - SE 43 52 23 28 1015.9 1016.0 -
28/04:30am - - - - - SE 43 50 23 27 1015.9 1015.9 -
28/04:00am - - - - - SE 41 50 22 27 1016.0 1016.0 -
28/03:30am - - - - - SE 44 52 24 28 1015.5 1015.5 -
28/03:00am - - - - - SE 43 50 23 27 1015.5 1015.5 -
28/02:30am - - - - - SE 39 46 21 25 1015.5 1015.5 -
28/02:00am - - - - - SE 39 46 21 25 1015.3 1015.4 -
28/01:30am - - - - - SE 37 46 20 25 1015.5 1015.5 -
28/01:00am - - - - - SE 37 46 20 25 1015.5 1015.4 -
28/12:30am - - - - - SE 35 44 19 24 1015.7 1015.7 -
28/12:00am - - - - - SE 33 39 18 21 1015.8 1015.7 -
 
Date/Time
WST
Temp
°C
App
Temp
°C
Dew
Point
°C
Rel
Hum
%
Delta-T
°C
Wind Press
QNH
hPa
Press
MSL
hPa
Rain since
9am
mm
Dir  Spd
km/h
Gust
km/h
Spd
kts
Gust
kts
27/11:30pm - - - - - SE 33 39 18 21 1015.8 1015.8 -
27/11:00pm - - - - - SE 30 37 16 20 1016.1 1016.0 -
27/10:30pm - - - - - SE 30 39 16 21 1016.2 1016.2 -
27/10:00pm - - - - - SE 32 37 17 20 1016.3 1016.4 -
27/09:30pm - - - - - SE 28 33 15 18 1016.4 1016.4 -
27/09:00pm - - - - - SE 28 33 15 18 1016.4 1016.4 -
27/08:30pm - - - - - SE 30 35 16 19 1016.3 1016.3 -
27/08:00pm - - - - - SE 28 35 15 19 1016.1 1016.2 -
27/07:30pm - - - - - SE 30 35 16 19 1015.9 1015.9 -
27/07:00pm - - - - - SE 30 35 16 19 1015.7 1015.9 -
27/06:30pm - - - - - SE 32 39 17 21 1015.6 1015.6 -
27/06:00pm - - - - - SE 30 35 16 19 1015.4 1015.5 -
27/05:30pm - - - - - SE 32 37 17 20 1015.1 1015.1 -
27/05:00pm - - - - - SE 30 37 16 20 1014.9 1015.0 -
27/04:30pm - - - - - SE 32 37 17 20 1014.6 1014.6 -
27/04:00pm - - - - - SE 32 39 17 21 1014.4 1014.3 -
27/03:30pm - - - - - SE 32 37 17 20 1014.3 1014.3 -
27/03:00pm - - - - - SE 32 35 17 19 1014.3 1014.3 -
27/02:30pm - - - - - SE 33 39 18 21 1014.3 1014.3 -
27/02:00pm - - - - - SE 32 44 17 24 1014.5 1014.5 -
27/01:30pm - - - - - SE 30 37 16 20 1014.6 1014.6 -
27/01:00pm - - - - - SE 32 39 17 21 1014.7 1014.7 -
27/12:30pm - - - - - SE 35 41 19 22 1014.9 1014.9 -
27/12:00pm - - - - - SE 33 41 18 22 1015.4 1015.3 -
27/11:30am - - - - - SE 35 41 19 22 1015.6 1015.6 -
27/11:00am - - - - - SE 35 43 19 23 1015.9 1015.9 -
27/10:30am - - - - - SE 35 43 19 23 1016.2 1016.2 -
27/10:00am - - - - - SE 33 41 18 22 1016.2 1016.1 -
27/09:30am - - - - - SE 35 41 19 22 1016.3 1016.3 -
27/09:00am - - - - - SE 37 43 20 23 1016.1 1016.2 -
27/08:30am - - - - - SE 37 46 20 25 1016.0 1016.0 -
27/08:00am - - - - - SE 37 46 20 25 1015.7 1015.8 -
27/07:30am - - - - - SE 35 43 19 23 1015.5 1015.5 -
27/07:00am - - - - - SE 33 41 18 22 1015.2 1015.2 -
27/06:30am - - - - - SE 35 43 19 23 1014.8 1014.8 -
27/06:00am - - - - - SE 30 35 16 19 1014.5 1014.5 -
27/05:30am - - - - - SE 30 33 16 18 1014.5 1014.5 -
27/05:00am - - - - - SSE 32 37 17 20 1014.2 1014.3 -
27/04:30am - - - - - SSE 30 35 16 19 1014.1 1014.1 -
27/04:00am - - - - - SSE 30 35 16 19 1013.9 1014.1 -
27/03:30am - - - - - SSE 28 35 15 19 1013.9 1013.9 -
27/03:00am - - - - - SSE 26 32 14 17 1014.3 1014.2 -
27/02:30am - - - - - SSE 22 32 12 17 1014.4 1014.4 -
27/02:00am - - - - - SSE 19 30 10 16 1014.6 1014.6 -
27/01:30am - - - - - S 19 22 10 12 1014.8 1014.8 -
27/01:00am - - - - - S 19 28 10 15 1015.0 1015.0 -
27/12:30am - - - - - S 17 24 9 13 1015.1 1015.1 -
27/12:00am - - - - - S 15 22 8 12 1015.1 1015.0 -
 
Date/Time
WST
Temp
°C
App
Temp
°C
Dew
Point
°C
Rel
Hum
%
Delta-T
°C
Wind Press
QNH
hPa
Press
MSL
hPa
Rain since
9am
mm
Dir  Spd
km/h
Gust
km/h
Spd
kts
Gust
kts
26/11:30pm - - - - - SSE 13 17 7 9 1015.4 1015.4 -
26/11:00pm - - - - - SSE 11 15 6 8 1015.4 1015.5 -
26/10:30pm - - - - - S 13 17 7 9 1015.4 1015.4 -
26/10:00pm - - - - - S 13 17 7 9 1015.7 1015.6 -
26/09:30pm - - - - - S 11 15 6 8 1015.8 1015.8 -
26/09:00pm - - - - - SSE 13 17 7 9 1015.5 1015.6 -
26/08:30pm - - - - - SSE 15 20 8 11 1015.4 1015.4 -
26/08:00pm - - - - - SSE 17 24 9 13 1015.2 1015.2 -
26/07:30pm - - - - - SE 19 22 10 12 1015.1 1015.1 -
26/07:00pm - - - - - SE 20 24 11 13 1014.7 1014.8 -
26/06:30pm - - - - - SE 20 24 11 13 1014.5 1014.5 -
26/06:00pm - - - - - SE 17 20 9 11 1014.1 1014.2 -
26/05:30pm - - - - - SE 15 20 8 11 1013.8 1013.8 -
26/05:00pm - - - - - SE 9 13 5 7 1013.8 1013.7 -
26/04:30pm - - - - - SSE 9 13 5 7 1013.4 1013.4 -
26/04:00pm - - - - - SSE 9 13 5 7 1013.3 1013.3 -
26/03:30pm - - - - - S 9 15 5 8 1013.1 1013.1 -
26/03:00pm - - - - - S 11 15 6 8 1012.9 1013.1 -
26/02:30pm - - - - - SSW 9 13 5 7 1013.1 1013.1 -
26/02:00pm - - - - - SSW 9 11 5 6 1013.2 1013.2 -
26/01:30pm - - - - - SSW 9 13 5 7 1013.3 1013.3 -
26/01:00pm - - - - - SSW 11 17 6 9 1013.6 1013.4 -
26/12:30pm - - - - - S 13 19 7 10 1013.8 1013.8 -
26/12:00pm - - - - - SSW 15 17 8 9 1014.1 1014.1 -
26/11:30am - - - - - SSW 15 19 8 10 1014.4 1014.4 -
26/11:00am - - - - - S 13 17 7 9 1014.7 1014.6 -
26/10:30am - - - - - SSW 17 20 9 11 1015.0 1015.0 -
26/10:00am - - - - - SSW 19 24 10 13 1015.0 1015.0 -
26/09:30am - - - - - SSW 20 26 11 14 1015.1 1015.1 -
26/09:00am - - - - - SSW 20 22 11 12 1015.1 1015.1 -
26/08:30am - - - - - SW 20 26 11 14 1014.9 1014.9 -
26/08:00am - - - - - SW 20 24 11 13 1014.5 1014.6 -
26/07:30am - - - - - SW 22 26 12 14 1014.2 1014.2 -
26/07:00am - - - - - SW 22 28 12 15 1013.9 1014.0 -
26/06:30am - - - - - SW 24 28 13 15 1013.4 1013.4 -
26/06:00am - - - - - SW 24 28 13 15 1013.3 1013.4 -
26/05:30am - - - - - SW 24 28 13 15 1012.9 1012.9 -
26/05:00am - - - - - SW 20 26 11 14 1012.7 1012.7 -
26/04:30am - - - - - SW 20 26 11 14 1012.6 1012.6 -
26/04:00am - - - - - WSW 19 24 10 13 1012.7 1012.7 -
26/03:30am - - - - - WSW 19 24 10 13 1012.7 1012.7 -
26/03:00am - - - - - WSW 17 20 9 11 1012.7 1012.8 -
26/02:30am - - - - - WSW 15 20 8 11 1012.7 1012.7 -
26/02:00am - - - - - SW 15 20 8 11 1012.7 1012.8 -
26/01:30am - - - - - WSW 13 19 7 10 1013.1 1013.1 -
26/01:00am - - - - - WSW 13 17 7 9 1013.5 1013.4 -
26/12:30am - - - - - WSW 11 17 6 9 1013.6 1013.6 -
26/12:00am - - - - - WSW 11 15 6 8 1013.8 1013.7 -
 
Date/Time
WST
Temp
°C
App
Temp
°C
Dew
Point
°C
Rel
Hum
%
Delta-T
°C
Wind Press
QNH
hPa
Press
MSL
hPa
Rain since
9am
mm
Dir  Spd
km/h
Gust
km/h
Spd
kts
Gust
kts
25/11:30pm - - - - - WSW 11 17 6 9 1014.1 1014.1 -
25/11:00pm - - - - - SW 13 15 7 8 1014.1 1014.1 -
25/10:30pm - - - - - SW 11 15 6 8 1014.2 1014.2 -
25/10:00pm - - - - - SW 11 15 6 8 1014.1 1014.2 -
25/09:30pm - - - - - SSW 15 17 8 9 1014.1 1014.1 -
25/09:00pm - - - - - SW 15 19 8 10 1014.1 1014.2 -
25/08:30pm - - - - - SSW 17 20 9 11 1013.8 1013.8 -
25/08:00pm - - - - - SW 19 24 10 13 1013.5 1013.6 -
25/07:30pm - - - - - SSW 19 24 10 13 1013.3 1013.3 -
25/07:00pm - - - - - SSW 20 26 11 14 1012.8 1012.9 -

Other Formats:

Comma delimited format used in spreadsheet applications
http://www.bom.gov.au/fwo/IDW60801/IDW60801.94207.axf

JavaScript Object Notation format (JSON) in row-major order
http://www.bom.gov.au/fwo/IDW60801/IDW60801.94207.json